Mikkeli, Mikkeli Airport (EFMI)

NameMikkeli Airport
CityMikkeli
CountryFinland
ICAOEFMI
IATAMIK
Altitude100 m
CoordinatesGoogle Map
Live Air TrafficLiveATC.net
METAREFMI 180450Z AUTO VRB06KT 9999 BKN036 05/M01 Q1032
2018-11-18 04:50:00 Wind: North (0°) 3.09 m/s - Visibility: > 10000 m - Temperature: 5 °C - Dew point: -1 °C - Humidity: 65.5% - Pressure: 1032 hPa

Sorry, no flights used the airport in this database.